sensor_id;sensor_type;location;lat;lon;timestamp;P1;durP1;ratioP1;P2;durP2;ratioP2
64199;SDS011;50516;52.272;5.136;2023-07-28T00:00:07;18.35;;;10.57;;
64199;SDS011;50516;52.272;5.136;2023-07-28T00:02:33;24.38;;;12.10;;
64199;SDS011;50516;52.272;5.136;2023-07-28T00:04:58;21.38;;;10.32;;
64199;SDS011;50516;52.272;5.136;2023-07-28T00:07:24;20.00;;;10.60;;
64199;SDS011;50516;52.272;5.136;2023-07-28T00:09:49;15.25;;;11.38;;
64199;SDS011;50516;52.272;5.136;2023-07-28T00:12:14;19.55;;;10.38;;
64199;SDS011;50516;52.272;5.136;2023-07-28T00:14:40;21.23;;;10.95;;
64199;SDS011;50516;52.272;5.136;2023-07-28T00:17:05;21.73;;;11.75;;
64199;SDS011;50516;52.272;5.136;2023-07-28T00:19:30;21.77;;;10.95;;
64199;SDS011;50516;52.272;5.136;2023-07-28T00:21:56;16.60;;;10.23;;
64199;SDS011;50516;52.272;5.136;2023-07-28T00:24:21;22.85;;;10.20;;
64199;SDS011;50516;52.272;5.136;2023-07-28T00:26:46;17.40;;;10.40;;
64199;SDS011;50516;52.272;5.136;2023-07-28T00:29:12;18.65;;;10.38;;
64199;SDS011;50516;52.272;5.136;2023-07-28T00:31:37;19.98;;;11.02;;
64199;SDS011;50516;52.272;5.136;2023-07-28T00:34:03;20.00;;;9.68;;
64199;SDS011;50516;52.272;5.136;2023-07-28T00:36:29;17.13;;;9.32;;
64199;SDS011;50516;52.272;5.136;2023-07-28T00:38:55;15.93;;;9.82;;
64199;SDS011;50516;52.272;5.136;2023-07-28T00:41:20;19.15;;;9.77;;
64199;SDS011;50516;52.272;5.136;2023-07-28T00:43:45;17.75;;;9.90;;
64199;SDS011;50516;52.272;5.136;2023-07-28T00:46:12;22.52;;;10.73;;
64199;SDS011;50516;52.272;5.136;2023-07-28T00:48:39;20.98;;;10.95;;
64199;SDS011;50516;52.272;5.136;2023-07-28T00:51:05;20.30;;;11.35;;
64199;SDS011;50516;52.272;5.136;2023-07-28T00:53:32;22.70;;;10.82;;
64199;SDS011;50516;52.272;5.136;2023-07-28T00:55:57;24.33;;;11.80;;
64199;SDS011;50516;52.272;5.136;2023-07-28T00:58:22;17.10;;;10.15;;
64199;SDS011;50516;52.272;5.136;2023-07-28T01:00:48;21.33;;;11.10;;
64199;SDS011;50516;52.272;5.136;2023-07-28T01:03:14;21.92;;;12.65;;
64199;SDS011;50516;52.272;5.136;2023-07-28T01:05:53;30.38;;;13.52;;
64199;SDS011;50516;52.272;5.136;2023-07-28T01:08:30;24.95;;;12.25;;
64199;SDS011;50516;52.272;5.136;2023-07-28T01:10:56;21.20;;;12.77;;
64199;SDS011;50516;52.272;5.136;2023-07-28T01:13:22;24.85;;;13.15;;
64199;SDS011;50516;52.272;5.136;2023-07-28T01:15:47;24.95;;;13.27;;
64199;SDS011;50516;52.272;5.136;2023-07-28T01:18:12;20.65;;;13.88;;
64199;SDS011;50516;52.272;5.136;2023-07-28T01:20:38;30.85;;;13.95;;
64199;SDS011;50516;52.272;5.136;2023-07-28T01:23:07;29.75;;;14.02;;
64199;SDS011;50516;52.272;5.136;2023-07-28T01:25:44;23.35;;;13.50;;
64199;SDS011;50516;52.272;5.136;2023-07-28T01:28:21;20.38;;;12.88;;
64199;SDS011;50516;52.272;5.136;2023-07-28T01:30:47;34.03;;;14.10;;
64199;SDS011;50516;52.272;5.136;2023-07-28T01:33:13;28.60;;;14.63;;
64199;SDS011;50516;52.272;5.136;2023-07-28T01:35:38;26.38;;;14.77;;
64199;SDS011;50516;52.272;5.136;2023-07-28T01:38:03;30.10;;;16.58;;
64199;SDS011;50516;52.272;5.136;2023-07-28T01:40:29;26.13;;;13.68;;
64199;SDS011;50516;52.272;5.136;2023-07-28T01:42:55;37.50;;;15.82;;
64199;SDS011;50516;52.272;5.136;2023-07-28T01:45:20;26.85;;;16.48;;
64199;SDS011;50516;52.272;5.136;2023-07-28T01:47:45;29.02;;;14.82;;
64199;SDS011;50516;52.272;5.136;2023-07-28T01:50:11;25.05;;;15.02;;
64199;SDS011;50516;52.272;5.136;2023-07-28T01:52:36;27.45;;;16.05;;
64199;SDS011;50516;52.272;5.136;2023-07-28T01:55:01;29.98;;;15.90;;
64199;SDS011;50516;52.272;5.136;2023-07-28T01:57:27;28.27;;;15.82;;
64199;SDS011;50516;52.272;5.136;2023-07-28T01:59:54;28.08;;;15.52;;
64199;SDS011;50516;52.272;5.136;2023-07-28T02:02:19;26.55;;;15.90;;
64199;SDS011;50516;52.272;5.136;2023-07-28T02:04:44;25.77;;;15.52;;
64199;SDS011;50516;52.272;5.136;2023-07-28T02:07:10;29.77;;;15.77;;
64199;SDS011;50516;52.272;5.136;2023-07-28T02:09:35;37.30;;;16.38;;
64199;SDS011;50516;52.272;5.136;2023-07-28T02:12:00;29.98;;;15.38;;
64199;SDS011;50516;52.272;5.136;2023-07-28T02:14:26;29.42;;;14.77;;
64199;SDS011;50516;52.272;5.136;2023-07-28T02:16:51;31.38;;;16.40;;
64199;SDS011;50516;52.272;5.136;2023-07-28T02:19:16;26.27;;;15.38;;
64199;SDS011;50516;52.272;5.136;2023-07-28T02:21:42;30.50;;;16.85;;
64199;SDS011;50516;52.272;5.136;2023-07-28T02:24:07;29.48;;;15.60;;
64199;SDS011;50516;52.272;5.136;2023-07-28T02:26:32;23.88;;;14.98;;
64199;SDS011;50516;52.272;5.136;2023-07-28T02:28:58;25.13;;;13.43;;
64199;SDS011;50516;52.272;5.136;2023-07-28T02:31:23;25.95;;;13.93;;
64199;SDS011;50516;52.272;5.136;2023-07-28T02:33:48;26.50;;;14.23;;
64199;SDS011;50516;52.272;5.136;2023-07-28T02:36:14;29.23;;;14.48;;
64199;SDS011;50516;52.272;5.136;2023-07-28T02:38:39;28.73;;;14.52;;
64199;SDS011;50516;52.272;5.136;2023-07-28T02:41:04;36.83;;;14.65;;
64199;SDS011;50516;52.272;5.136;2023-07-28T02:43:30;29.08;;;13.98;;
64199;SDS011;50516;52.272;5.136;2023-07-28T02:45:55;32.55;;;15.65;;
64199;SDS011;50516;52.272;5.136;2023-07-28T02:48:22;24.30;;;12.80;;
64199;SDS011;50516;52.272;5.136;2023-07-28T02:50:48;28.20;;;13.90;;
64199;SDS011;50516;52.272;5.136;2023-07-28T02:53:15;22.27;;;13.82;;
64199;SDS011;50516;52.272;5.136;2023-07-28T02:55:41;27.33;;;13.70;;
64199;SDS011;50516;52.272;5.136;2023-07-28T02:58:10;24.73;;;12.60;;
64199;SDS011;50516;52.272;5.136;2023-07-28T03:00:42;20.83;;;11.88;;
64199;SDS011;50516;52.272;5.136;2023-07-28T03:03:09;24.00;;;12.60;;
64199;SDS011;50516;52.272;5.136;2023-07-28T03:05:35;25.77;;;13.55;;
64199;SDS011;50516;52.272;5.136;2023-07-28T03:08:05;21.92;;;13.30;;
64199;SDS011;50516;52.272;5.136;2023-07-28T03:10:30;29.30;;;13.27;;
64199;SDS011;50516;52.272;5.136;2023-07-28T03:12:56;21.35;;;11.93;;
64199;SDS011;50516;52.272;5.136;2023-07-28T03:15:22;35.55;;;13.00;;
64199;SDS011;50516;52.272;5.136;2023-07-28T03:17:48;26.38;;;13.25;;
64199;SDS011;50516;52.272;5.136;2023-07-28T03:20:13;25.88;;;13.52;;
64199;SDS011;50516;52.272;5.136;2023-07-28T03:22:39;23.80;;;12.55;;
64199;SDS011;50516;52.272;5.136;2023-07-28T03:25:04;22.77;;;12.65;;
64199;SDS011;50516;52.272;5.136;2023-07-28T03:27:30;29.23;;;12.50;;
64199;SDS011;50516;52.272;5.136;2023-07-28T03:29:55;26.33;;;14.05;;
64199;SDS011;50516;52.272;5.136;2023-07-28T03:32:20;26.20;;;12.57;;
64199;SDS011;50516;52.272;5.136;2023-07-28T03:34:46;25.52;;;12.88;;
64199;SDS011;50516;52.272;5.136;2023-07-28T03:37:11;27.63;;;12.90;;
64199;SDS011;50516;52.272;5.136;2023-07-28T03:39:36;25.83;;;12.05;;
64199;SDS011;50516;52.272;5.136;2023-07-28T03:42:02;26.25;;;12.27;;
64199;SDS011;50516;52.272;5.136;2023-07-28T03:44:27;25.15;;;12.25;;
64199;SDS011;50516;52.272;5.136;2023-07-28T03:46:53;27.77;;;11.65;;
64199;SDS011;50516;52.272;5.136;2023-07-28T03:49:18;24.48;;;11.98;;
64199;SDS011;50516;52.272;5.136;2023-07-28T03:51:44;27.95;;;12.27;;
64199;SDS011;50516;52.272;5.136;2023-07-28T03:54:09;32.88;;;12.70;;
64199;SDS011;50516;52.272;5.136;2023-07-28T03:56:34;23.15;;;11.60;;
64199;SDS011;50516;52.272;5.136;2023-07-28T03:59:00;23.50;;;11.68;;
64199;SDS011;50516;52.272;5.136;2023-07-28T04:01:25;30.63;;;12.52;;
64199;SDS011;50516;52.272;5.136;2023-07-28T04:03:50;25.15;;;12.30;;
64199;SDS011;50516;52.272;5.136;2023-07-28T04:06:16;33.97;;;14.15;;
64199;SDS011;50516;52.272;5.136;2023-07-28T04:08:41;25.88;;;10.82;;
64199;SDS011;50516;52.272;5.136;2023-07-28T04:11:07;20.88;;;10.05;;
64199;SDS011;50516;52.272;5.136;2023-07-28T04:13:33;22.98;;;11.80;;
64199;SDS011;50516;52.272;5.136;2023-07-28T04:15:59;25.75;;;11.15;;
64199;SDS011;50516;52.272;5.136;2023-07-28T04:18:24;32.72;;;12.48;;
64199;SDS011;50516;52.272;5.136;2023-07-28T04:20:49;28.10;;;12.40;;
64199;SDS011;50516;52.272;5.136;2023-07-28T04:23:15;27.80;;;12.32;;
64199;SDS011;50516;52.272;5.136;2023-07-28T04:25:40;24.55;;;11.77;;
64199;SDS011;50516;52.272;5.136;2023-07-28T04:28:05;30.63;;;12.93;;
64199;SDS011;50516;52.272;5.136;2023-07-28T04:30:30;31.98;;;14.10;;
64199;SDS011;50516;52.272;5.136;2023-07-28T04:32:56;29.55;;;12.75;;
64199;SDS011;50516;52.272;5.136;2023-07-28T04:35:21;23.95;;;13.73;;
64199;SDS011;50516;52.272;5.136;2023-07-28T04:37:46;23.55;;;12.25;;
64199;SDS011;50516;52.272;5.136;2023-07-28T04:40:12;25.75;;;13.23;;
64199;SDS011;50516;52.272;5.136;2023-07-28T04:42:38;26.80;;;13.88;;
64199;SDS011;50516;52.272;5.136;2023-07-28T04:45:03;24.80;;;12.15;;
64199;SDS011;50516;52.272;5.136;2023-07-28T04:47:29;26.77;;;12.55;;
64199;SDS011;50516;52.272;5.136;2023-07-28T04:49:54;32.70;;;13.68;;
64199;SDS011;50516;52.272;5.136;2023-07-28T04:52:20;30.35;;;13.90;;
64199;SDS011;50516;52.272;5.136;2023-07-28T04:54:45;22.08;;;12.90;;
64199;SDS011;50516;52.272;5.136;2023-07-28T04:57:11;27.38;;;12.88;;
64199;SDS011;50516;52.272;5.136;2023-07-28T04:59:37;29.33;;;13.50;;
64199;SDS011;50516;52.272;5.136;2023-07-28T05:02:02;26.75;;;13.25;;
64199;SDS011;50516;52.272;5.136;2023-07-28T05:04:28;23.73;;;12.75;;
64199;SDS011;50516;52.272;5.136;2023-07-28T05:06:53;31.70;;;13.70;;
64199;SDS011;50516;52.272;5.136;2023-07-28T05:09:19;26.35;;;12.88;;
64199;SDS011;50516;52.272;5.136;2023-07-28T05:11:44;32.25;;;14.02;;
64199;SDS011;50516;52.272;5.136;2023-07-28T05:14:09;29.80;;;13.93;;
64199;SDS011;50516;52.272;5.136;2023-07-28T05:16:35;34.75;;;13.40;;
64199;SDS011;50516;52.272;5.136;2023-07-28T05:19:00;35.33;;;13.48;;
64199;SDS011;50516;52.272;5.136;2023-07-28T05:21:25;33.95;;;14.57;;
64199;SDS011;50516;52.272;5.136;2023-07-28T05:23:51;27.15;;;13.55;;
64199;SDS011;50516;52.272;5.136;2023-07-28T05:26:16;38.13;;;13.35;;
64199;SDS011;50516;52.272;5.136;2023-07-28T05:28:41;30.73;;;14.07;;
64199;SDS011;50516;52.272;5.136;2023-07-28T05:31:07;33.80;;;13.63;;
64199;SDS011;50516;52.272;5.136;2023-07-28T05:33:33;34.83;;;15.55;;
64199;SDS011;50516;52.272;5.136;2023-07-28T05:36:02;32.42;;;15.40;;
64199;SDS011;50516;52.272;5.136;2023-07-28T05:38:28;32.40;;;13.90;;
64199;SDS011;50516;52.272;5.136;2023-07-28T05:40:57;33.60;;;14.77;;
64199;SDS011;50516;52.272;5.136;2023-07-28T05:43:26;29.58;;;12.95;;
64199;SDS011;50516;52.272;5.136;2023-07-28T05:45:52;34.78;;;13.77;;
64199;SDS011;50516;52.272;5.136;2023-07-28T05:48:17;33.80;;;13.48;;
64199;SDS011;50516;52.272;5.136;2023-07-28T05:50:43;31.67;;;13.80;;
64199;SDS011;50516;52.272;5.136;2023-07-28T05:53:08;40.40;;;15.43;;
64199;SDS011;50516;52.272;5.136;2023-07-28T05:55:34;35.83;;;14.38;;
64199;SDS011;50516;52.272;5.136;2023-07-28T05:57:59;28.15;;;13.15;;
64199;SDS011;50516;52.272;5.136;2023-07-28T06:00:25;30.73;;;13.50;;
64199;SDS011;50516;52.272;5.136;2023-07-28T06:02:50;27.23;;;13.70;;
64199;SDS011;50516;52.272;5.136;2023-07-28T06:05:15;29.27;;;13.25;;
64199;SDS011;50516;52.272;5.136;2023-07-28T06:07:41;28.20;;;13.38;;
64199;SDS011;50516;52.272;5.136;2023-07-28T06:10:07;38.10;;;13.20;;
64199;SDS011;50516;52.272;5.136;2023-07-28T06:12:32;23.15;;;13.10;;
64199;SDS011;50516;52.272;5.136;2023-07-28T06:14:58;32.17;;;12.95;;
64199;SDS011;50516;52.272;5.136;2023-07-28T06:17:23;28.33;;;13.35;;
64199;SDS011;50516;52.272;5.136;2023-07-28T06:19:48;26.00;;;12.63;;
64199;SDS011;50516;52.272;5.136;2023-07-28T06:22:14;31.65;;;12.98;;
64199;SDS011;50516;52.272;5.136;2023-07-28T06:24:40;26.55;;;13.98;;
64199;SDS011;50516;52.272;5.136;2023-07-28T06:27:05;28.83;;;13.13;;
64199;SDS011;50516;52.272;5.136;2023-07-28T06:29:33;32.95;;;13.55;;
64199;SDS011;50516;52.272;5.136;2023-07-28T06:31:58;27.80;;;14.02;;
64199;SDS011;50516;52.272;5.136;2023-07-28T06:34:24;27.75;;;12.18;;
64199;SDS011;50516;52.272;5.136;2023-07-28T06:36:49;34.88;;;15.50;;
64199;SDS011;50516;52.272;5.136;2023-07-28T06:39:14;26.35;;;13.13;;
64199;SDS011;50516;52.272;5.136;2023-07-28T06:41:40;28.10;;;12.77;;
64199;SDS011;50516;52.272;5.136;2023-07-28T06:44:05;27.17;;;12.75;;
64199;SDS011;50516;52.272;5.136;2023-07-28T06:46:32;32.45;;;13.25;;
64199;SDS011;50516;52.272;5.136;2023-07-28T06:48:57;28.58;;;13.77;;
64199;SDS011;50516;52.272;5.136;2023-07-28T06:51:22;27.55;;;13.35;;
64199;SDS011;50516;52.272;5.136;2023-07-28T06:53:47;24.92;;;12.80;;
64199;SDS011;50516;52.272;5.136;2023-07-28T06:56:13;32.38;;;12.85;;
64199;SDS011;50516;52.272;5.136;2023-07-28T06:58:38;27.60;;;12.57;;
64199;SDS011;50516;52.272;5.136;2023-07-28T07:01:03;28.05;;;12.95;;
64199;SDS011;50516;52.272;5.136;2023-07-28T07:03:29;24.45;;;12.20;;
64199;SDS011;50516;52.272;5.136;2023-07-28T07:05:54;24.45;;;12.88;;
64199;SDS011;50516;52.272;5.136;2023-07-28T07:08:19;22.38;;;11.77;;
64199;SDS011;50516;52.272;5.136;2023-07-28T07:10:50;28.00;;;12.98;;
64199;SDS011;50516;52.272;5.136;2023-07-28T07:13:16;22.35;;;11.88;;
64199;SDS011;50516;52.272;5.136;2023-07-28T07:15:42;23.75;;;12.25;;
64199;SDS011;50516;52.272;5.136;2023-07-28T07:18:08;24.90;;;12.25;;
64199;SDS011;50516;52.272;5.136;2023-07-28T07:20:37;32.72;;;13.90;;
64199;SDS011;50516;52.272;5.136;2023-07-28T07:23:03;20.85;;;12.35;;
64199;SDS011;50516;52.272;5.136;2023-07-28T07:25:29;21.38;;;12.77;;
64199;SDS011;50516;52.272;5.136;2023-07-28T07:27:54;21.63;;;12.82;;
64199;SDS011;50516;52.272;5.136;2023-07-28T07:30:20;22.63;;;12.73;;
64199;SDS011;50516;52.272;5.136;2023-07-28T07:32:45;28.55;;;12.65;;
64199;SDS011;50516;52.272;5.136;2023-07-28T07:35:11;20.80;;;12.13;;
64199;SDS011;50516;52.272;5.136;2023-07-28T07:37:37;20.63;;;12.60;;
64199;SDS011;50516;52.272;5.136;2023-07-28T07:40:03;20.58;;;12.77;;
64199;SDS011;50516;52.272;5.136;2023-07-28T07:42:30;20.27;;;12.75;;
64199;SDS011;50516;52.272;5.136;2023-07-28T07:45:07;21.80;;;11.60;;
64199;SDS011;50516;52.272;5.136;2023-07-28T07:47:34;22.90;;;13.30;;
64199;SDS011;50516;52.272;5.136;2023-07-28T07:49:59;24.30;;;13.52;;
64199;SDS011;50516;52.272;5.136;2023-07-28T07:52:25;22.27;;;12.82;;
64199;SDS011;50516;52.272;5.136;2023-07-28T07:54:50;21.90;;;12.40;;
64199;SDS011;50516;52.272;5.136;2023-07-28T07:57:16;26.08;;;12.80;;
64199;SDS011;50516;52.272;5.136;2023-07-28T07:59:41;21.58;;;13.35;;
64199;SDS011;50516;52.272;5.136;2023-07-28T08:02:07;21.70;;;12.75;;
64199;SDS011;50516;52.272;5.136;2023-07-28T08:04:32;18.70;;;11.50;;
64199;SDS011;50516;52.272;5.136;2023-07-28T08:06:57;20.40;;;13.02;;
64199;SDS011;50516;52.272;5.136;2023-07-28T08:09:23;19.70;;;13.02;;
64199;SDS011;50516;52.272;5.136;2023-07-28T08:11:48;16.67;;;12.25;;
64199;SDS011;50516;52.272;5.136;2023-07-28T08:14:14;17.13;;;12.25;;
64199;SDS011;50516;52.272;5.136;2023-07-28T08:16:39;16.88;;;12.77;;
64199;SDS011;50516;52.272;5.136;2023-07-28T08:19:04;16.23;;;12.32;;
64199;SDS011;50516;52.272;5.136;2023-07-28T08:21:30;18.13;;;12.75;;
64199;SDS011;50516;52.272;5.136;2023-07-28T08:24:01;18.20;;;13.68;;
64199;SDS011;50516;52.272;5.136;2023-07-28T08:26:26;18.55;;;13.40;;
64199;SDS011;50516;52.272;5.136;2023-07-28T08:28:51;19.60;;;13.30;;
64199;SDS011;50516;52.272;5.136;2023-07-28T08:31:17;16.27;;;13.80;;
64199;SDS011;50516;52.272;5.136;2023-07-28T08:33:42;16.83;;;12.52;;
64199;SDS011;50516;52.272;5.136;2023-07-28T08:36:07;20.10;;;12.25;;
64199;SDS011;50516;52.272;5.136;2023-07-28T08:38:33;17.63;;;11.48;;
64199;SDS011;50516;52.272;5.136;2023-07-28T08:40:58;16.83;;;11.20;;
64199;SDS011;50516;52.272;5.136;2023-07-28T08:43:23;19.23;;;10.38;;
64199;SDS011;50516;52.272;5.136;2023-07-28T08:45:49;13.80;;;9.52;;
64199;SDS011;50516;52.272;5.136;2023-07-28T08:48:16;14.82;;;9.60;;
64199;SDS011;50516;52.272;5.136;2023-07-28T08:50:42;13.32;;;10.40;;
64199;SDS011;50516;52.272;5.136;2023-07-28T08:53:07;15.27;;;9.27;;
64199;SDS011;50516;52.272;5.136;2023-07-28T08:55:33;13.68;;;9.13;;
64199;SDS011;50516;52.272;5.136;2023-07-28T08:58:13;16.33;;;10.15;;
64199;SDS011;50516;52.272;5.136;2023-07-28T09:00:44;12.10;;;9.82;;
64199;SDS011;50516;52.272;5.136;2023-07-28T09:03:09;11.40;;;9.30;;
64199;SDS011;50516;52.272;5.136;2023-07-28T09:05:35;12.85;;;8.48;;
64199;SDS011;50516;52.272;5.136;2023-07-28T09:08:00;16.85;;;9.23;;
64199;SDS011;50516;52.272;5.136;2023-07-28T09:10:32;10.13;;;7.15;;
64199;SDS011;50516;52.272;5.136;2023-07-28T09:13:07;17.67;;;8.07;;
64199;SDS011;50516;52.272;5.136;2023-07-28T09:15:34;11.90;;;7.55;;
64199;SDS011;50516;52.272;5.136;2023-07-28T09:18:00;10.65;;;7.25;;
64199;SDS011;50516;52.272;5.136;2023-07-28T09:20:26;10.23;;;7.43;;
64199;SDS011;50516;52.272;5.136;2023-07-28T09:23:00;9.07;;;5.97;;
64199;SDS011;50516;52.272;5.136;2023-07-28T09:25:25;7.45;;;6.55;;
64199;SDS011;50516;52.272;5.136;2023-07-28T09:27:54;7.03;;;5.53;;
64199;SDS011;50516;52.272;5.136;2023-07-28T09:30:19;12.15;;;5.13;;
64199;SDS011;50516;52.272;5.136;2023-07-28T09:32:49;7.65;;;5.25;;
64199;SDS011;50516;52.272;5.136;2023-07-28T09:35:16;11.73;;;4.90;;
64199;SDS011;50516;52.272;5.136;2023-07-28T09:37:43;6.20;;;5.25;;
64199;SDS011;50516;52.272;5.136;2023-07-28T09:40:14;9.75;;;5.03;;
64199;SDS011;50516;52.272;5.136;2023-07-28T09:42:44;9.13;;;4.65;;
64199;SDS011;50516;52.272;5.136;2023-07-28T09:45:14;8.18;;;4.78;;
64199;SDS011;50516;52.272;5.136;2023-07-28T09:47:41;5.88;;;4.38;;
64199;SDS011;50516;52.272;5.136;2023-07-28T09:50:10;14.98;;;5.70;;
64199;SDS011;50516;52.272;5.136;2023-07-28T09:52:39;7.88;;;5.07;;
64199;SDS011;50516;52.272;5.136;2023-07-28T09:55:08;7.35;;;4.32;;
64199;SDS011;50516;52.272;5.136;2023-07-28T09:57:39;9.32;;;4.45;;
64199;SDS011;50516;52.272;5.136;2023-07-28T10:00:07;8.15;;;4.10;;
64199;SDS011;50516;52.272;5.136;2023-07-28T10:02:35;11.38;;;6.45;;
64199;SDS011;50516;52.272;5.136;2023-07-28T10:05:01;8.40;;;5.07;;
64199;SDS011;50516;52.272;5.136;2023-07-28T10:07:27;12.23;;;4.85;;
64199;SDS011;50516;52.272;5.136;2023-07-28T10:09:53;9.82;;;4.82;;
64199;SDS011;50516;52.272;5.136;2023-07-28T10:12:26;8.05;;;4.65;;
64199;SDS011;50516;52.272;5.136;2023-07-28T10:15:01;7.85;;;4.95;;
64199;SDS011;50516;52.272;5.136;2023-07-28T10:17:31;9.02;;;5.18;;
64199;SDS011;50516;52.272;5.136;2023-07-28T10:19:59;10.48;;;4.90;;
64199;SDS011;50516;52.272;5.136;2023-07-28T10:22:43;9.38;;;5.00;;
64199;SDS011;50516;52.272;5.136;2023-07-28T10:25:09;12.18;;;5.45;;
64199;SDS011;50516;52.272;5.136;2023-07-28T10:30:13;9.88;;;5.28;;
64199;SDS011;50516;52.272;5.136;2023-07-28T10:32:45;9.85;;;5.85;;
64199;SDS011;50516;52.272;5.136;2023-07-28T10:37:38;7.95;;;4.70;;
64199;SDS011;50516;52.272;5.136;2023-07-28T10:42:51;8.55;;;5.43;;
64199;SDS011;50516;52.272;5.136;2023-07-28T10:45:18;8.13;;;5.38;;
64199;SDS011;50516;52.272;5.136;2023-07-28T10:47:43;9.90;;;5.18;;
64199;SDS011;50516;52.272;5.136;2023-07-28T10:50:09;9.70;;;5.50;;
64199;SDS011;50516;52.272;5.136;2023-07-28T10:52:45;11.90;;;5.43;;
64199;SDS011;50516;52.272;5.136;2023-07-28T10:55:12;8.82;;;5.25;;
64199;SDS011;50516;52.272;5.136;2023-07-28T10:57:37;9.43;;;5.43;;
64199;SDS011;50516;52.272;5.136;2023-07-28T11:00:03;12.52;;;5.10;;
64199;SDS011;50516;52.272;5.136;2023-07-28T11:02:30;9.23;;;4.72;;
64199;SDS011;50516;52.272;5.136;2023-07-28T11:04:56;8.30;;;5.18;;
64199;SDS011;50516;52.272;5.136;2023-07-28T11:07:21;9.13;;;4.95;;
64199;SDS011;50516;52.272;5.136;2023-07-28T11:09:47;7.32;;;4.45;;
64199;SDS011;50516;52.272;5.136;2023-07-28T11:12:12;7.45;;;4.78;;
64199;SDS011;50516;52.272;5.136;2023-07-28T11:14:39;7.05;;;4.50;;
64199;SDS011;50516;52.272;5.136;2023-07-28T11:17:05;10.27;;;4.97;;
64199;SDS011;50516;52.272;5.136;2023-07-28T11:19:30;9.18;;;5.38;;
64199;SDS011;50516;52.272;5.136;2023-07-28T11:21:56;11.00;;;5.85;;
64199;SDS011;50516;52.272;5.136;2023-07-28T11:24:23;9.35;;;6.00;;
64199;SDS011;50516;52.272;5.136;2023-07-28T11:26:49;10.25;;;5.45;;
64199;SDS011;50516;52.272;5.136;2023-07-28T11:29:15;11.07;;;6.32;;
64199;SDS011;50516;52.272;5.136;2023-07-28T11:31:41;10.07;;;5.93;;
64199;SDS011;50516;52.272;5.136;2023-07-28T11:34:16;10.73;;;5.50;;
64199;SDS011;50516;52.272;5.136;2023-07-28T11:36:43;7.68;;;5.22;;
64199;SDS011;50516;52.272;5.136;2023-07-28T11:39:08;13.45;;;6.03;;
64199;SDS011;50516;52.272;5.136;2023-07-28T11:41:35;11.25;;;6.32;;
64199;SDS011;50516;52.272;5.136;2023-07-28T11:44:01;12.05;;;6.20;;
64199;SDS011;50516;52.272;5.136;2023-07-28T11:49:33;9.70;;;5.50;;
64199;SDS011;50516;52.272;5.136;2023-07-28T11:51:54;8.73;;;5.32;;
64199;SDS011;50516;52.272;5.136;2023-07-28T11:54:24;9.65;;;5.75;;
64199;SDS011;50516;52.272;5.136;2023-07-28T11:56:54;7.88;;;5.10;;
64199;SDS011;50516;52.272;5.136;2023-07-28T11:59:21;13.20;;;5.47;;
64199;SDS011;50516;52.272;5.136;2023-07-28T12:02:00;11.85;;;5.65;;
64199;SDS011;50516;52.272;5.136;2023-07-28T12:04:28;13.13;;;6.30;;
64199;SDS011;50516;52.272;5.136;2023-07-28T12:07:05;9.60;;;5.78;;
64199;SDS011;50516;52.272;5.136;2023-07-28T12:12:10;9.73;;;4.95;;
64199;SDS011;50516;52.272;5.136;2023-07-28T12:14:36;10.43;;;5.75;;
64199;SDS011;50516;52.272;5.136;2023-07-28T12:17:03;10.52;;;5.25;;
64199;SDS011;50516;52.272;5.136;2023-07-28T12:19:28;15.52;;;6.20;;
64199;SDS011;50516;52.272;5.136;2023-07-28T12:21:54;14.00;;;6.10;;
64199;SDS011;50516;52.272;5.136;2023-07-28T12:24:19;12.85;;;5.68;;
64199;SDS011;50516;52.272;5.136;2023-07-28T12:26:45;11.45;;;5.78;;
64199;SDS011;50516;52.272;5.136;2023-07-28T12:29:11;12.75;;;5.55;;
64199;SDS011;50516;52.272;5.136;2023-07-28T12:31:36;12.07;;;5.43;;
64199;SDS011;50516;52.272;5.136;2023-07-28T12:34:02;9.23;;;5.10;;
64199;SDS011;50516;52.272;5.136;2023-07-28T12:36:27;8.98;;;4.97;;
64199;SDS011;50516;52.272;5.136;2023-07-28T12:38:52;10.52;;;5.30;;
64199;SDS011;50516;52.272;5.136;2023-07-28T12:41:18;7.47;;;4.15;;
64199;SDS011;50516;52.272;5.136;2023-07-28T12:43:43;7.82;;;4.50;;
64199;SDS011;50516;52.272;5.136;2023-07-28T12:46:08;9.18;;;5.20;;
64199;SDS011;50516;52.272;5.136;2023-07-28T12:48:34;9.07;;;4.78;;
64199;SDS011;50516;52.272;5.136;2023-07-28T12:50:59;7.90;;;4.32;;
64199;SDS011;50516;52.272;5.136;2023-07-28T12:53:25;8.07;;;4.13;;
64199;SDS011;50516;52.272;5.136;2023-07-28T12:55:50;8.55;;;4.40;;
64199;SDS011;50516;52.272;5.136;2023-07-28T12:58:16;7.43;;;4.35;;
64199;SDS011;50516;52.272;5.136;2023-07-28T13:00:41;7.80;;;4.20;;
64199;SDS011;50516;52.272;5.136;2023-07-28T13:03:06;8.90;;;5.05;;
64199;SDS011;50516;52.272;5.136;2023-07-28T13:05:32;8.05;;;4.28;;
64199;SDS011;50516;52.272;5.136;2023-07-28T13:07:57;10.75;;;5.10;;
64199;SDS011;50516;52.272;5.136;2023-07-28T13:10:22;7.93;;;4.70;;
64199;SDS011;50516;52.272;5.136;2023-07-28T13:12:48;13.68;;;5.85;;
64199;SDS011;50516;52.272;5.136;2023-07-28T13:15:13;12.88;;;5.07;;
64199;SDS011;50516;52.272;5.136;2023-07-28T13:17:39;11.63;;;4.90;;
64199;SDS011;50516;52.272;5.136;2023-07-28T13:20:04;10.60;;;4.20;;
64199;SDS011;50516;52.272;5.136;2023-07-28T13:22:31;10.10;;;4.38;;
64199;SDS011;50516;52.272;5.136;2023-07-28T13:24:57;8.02;;;4.47;;
64199;SDS011;50516;52.272;5.136;2023-07-28T13:27:22;10.13;;;4.45;;
64199;SDS011;50516;52.272;5.136;2023-07-28T13:29:47;9.00;;;4.78;;
64199;SDS011;50516;52.272;5.136;2023-07-28T13:32:17;10.45;;;4.47;;
64199;SDS011;50516;52.272;5.136;2023-07-28T13:34:43;9.98;;;4.85;;
64199;SDS011;50516;52.272;5.136;2023-07-28T13:37:09;7.63;;;4.00;;
64199;SDS011;50516;52.272;5.136;2023-07-28T13:39:34;9.20;;;4.50;;
64199;SDS011;50516;52.272;5.136;2023-07-28T13:41:59;9.63;;;4.78;;
64199;SDS011;50516;52.272;5.136;2023-07-28T13:44:25;9.23;;;4.15;;
64199;SDS011;50516;52.272;5.136;2023-07-28T13:46:50;8.63;;;5.15;;
64199;SDS011;50516;52.272;5.136;2023-07-28T13:49:15;10.88;;;4.82;;
64199;SDS011;50516;52.272;5.136;2023-07-28T13:51:40;8.85;;;4.82;;
64199;SDS011;50516;52.272;5.136;2023-07-28T13:54:06;11.40;;;5.28;;
64199;SDS011;50516;52.272;5.136;2023-07-28T13:56:31;7.88;;;4.65;;
64199;SDS011;50516;52.272;5.136;2023-07-28T13:58:56;9.07;;;5.05;;
64199;SDS011;50516;52.272;5.136;2023-07-28T14:01:22;5.88;;;3.78;;
64199;SDS011;50516;52.272;5.136;2023-07-28T14:03:47;11.32;;;4.68;;
64199;SDS011;50516;52.272;5.136;2023-07-28T14:06:13;8.75;;;4.28;;
64199;SDS011;50516;52.272;5.136;2023-07-28T14:08:38;5.95;;;4.38;;
64199;SDS011;50516;52.272;5.136;2023-07-28T14:11:03;8.85;;;5.25;;
64199;SDS011;50516;52.272;5.136;2023-07-28T14:13:29;7.55;;;4.45;;
64199;SDS011;50516;52.272;5.136;2023-07-28T14:15:54;8.25;;;4.82;;
64199;SDS011;50516;52.272;5.136;2023-07-28T14:18:20;13.77;;;4.97;;
64199;SDS011;50516;52.272;5.136;2023-07-28T14:20:45;9.82;;;5.22;;
64199;SDS011;50516;52.272;5.136;2023-07-28T14:23:24;10.15;;;4.90;;
64199;SDS011;50516;52.272;5.136;2023-07-28T14:25:50;9.82;;;5.05;;
64199;SDS011;50516;52.272;5.136;2023-07-28T14:28:16;9.02;;;5.15;;
64199;SDS011;50516;52.272;5.136;2023-07-28T14:30:41;14.13;;;5.63;;
64199;SDS011;50516;52.272;5.136;2023-07-28T14:33:11;10.15;;;5.72;;
64199;SDS011;50516;52.272;5.136;2023-07-28T14:35:37;8.15;;;4.43;;